Ever Loyal — BKIZ — position and weather

sailwx.info

Track history (hours):
 
Tides and Currents Weather Stations Pressure Air Temp Water Temp Dewpoint Dewpoint Depression Visibility Wind Speed Wind Dir Waves Ship Positions

Ever Loyal

Last reported at 2017-Oct-07 19:17 UTC. Time now 2017-Oct-17 13:11 UTC.
Position N 31°34' E 032°11'.
Warning: this ship's position is 9 days out of date.

Length 335 m; draft 10.7 m.

Type: Ship (hazmat cat D). MMSI: 416495000.

Date/timePositionNaut miles runAvg speedWind from/ knotsBaromVisibWave heightAir tempDewpointWater temp
2017-Oct-07 19:17N 31°34' E 032°11'415.0
2017-Oct-07 19:01N 31°37' E 032°07'1015.2
2017-Oct-07 18:20N 31°44' E 031°58'4715.0
2017-Oct-07 15:10N 31°59' E 031°06'1215.1
2017-Oct-07 14:22N 32°03' E 030°53'514.9
2017-Oct-07 14:00N 32°05' E 030°46'815.1
2017-Oct-07 13:31N 32°07' E 030°38'815.3
2017-Oct-07 13:00N 32°09' E 030°29'80817.2
2017-Oct-05 13:55N 36°20' E 014°60'717.7
2017-Oct-05 13:29N 36°22' E 014°51'917.6
2017-Oct-05 13:00N 36°25' E 014°41'917.4
2017-Oct-05 12:30N 36°28' E 014°31'917.4
2017-Oct-05 12:00N 36°31' E 014°20'917.5
2017-Oct-05 11:30N 36°33' E 014°10'917.4
2017-Oct-05 11:00N 36°36' E 013°60'917.5
2017-Oct-05 10:31N 36°39' E 013°49'917.3
2017-Oct-05 10:00N 36°41' E 013°39'816.7
2017-Oct-05 09:30N 36°44' E 013°29'816.5
2017-Oct-05 09:00N 36°46' E 013°19'816.5
2017-Oct-05 08:29N 36°49' E 013°09'816.6
2017-Oct-05 08:00N 36°52' E 012°60'  
2017-Oct-02 14:48N 36°27' W 009°59'916.6
2017-Oct-02 14:18N 36°28' W 010°09'1516.6
2017-Oct-02 13:22N 36°31' W 010°28'616.6
2017-Oct-02 13:01N 36°32' W 010°36'916.5
2017-Oct-02 12:29N 36°33' W 010°46'816.4
2017-Oct-02 12:00N 36°34' W 010°56'1517.0
2017-Oct-02 11:08N 36°36' W 011°14'419.4
2017-Oct-02 10:57N 36°37' W 011°18'919.5
2017-Oct-02 10:31N 36°40' W 011°29'1019.7
2017-Oct-02 10:00N 36°43' W 011°41'1019.9
2017-Oct-02 09:30N 36°46' W 011°52'1019.7
2017-Oct-02 09:01N 36°49' W 012°04'918.2
2017-Oct-02 08:30N 36°52' W 012°15'816.3
2017-Oct-02 08:00N 36°55' W 012°24'816.2
2017-Oct-02 07:30N 36°58' W 012°34'915.9
2017-Oct-02 06:58N 37°01' W 012°44'716.0
2017-Oct-02 06:30N 37°03' W 012°53'916.1
2017-Oct-02 05:59N 37°06' W 013°03'715.8
2017-Oct-02 05:30N 37°08' W 013°12'815.7
2017-Oct-02 05:00N 37°11' W 013°21'815.7
2017-Oct-02 04:30N 37°13' W 013°30'815.7
2017-Oct-02 04:00N 37°16' W 013°40'816.0
2017-Oct-02 03:30N 37°18' W 013°49'816.2
2017-Oct-02 03:01N 37°21' W 013°59'14816.4
2017-Oct-01 17:59N 38°05' W 016°57'1016.6
2017-Oct-01 17:23N 38°08' W 017°09'616.6
2017-Oct-01 17:00N 38°10' W 017°16'816.6
2017-Oct-01 16:30N 38°13' W 017°27'1016.6
2017-Oct-01 15:53N 38°15' W 017°39'616.6
2017-Oct-01 15:30N 38°17' W 017°47'1016.6
2017-Oct-01 14:56N 38°20' W 017°59'716.6
2017-Oct-01 14:30N 38°22' W 018°07'15316.8
2017-Oct-01 05:24N 39°01' W 021°17'48117.5
2017-Sep-30 01:57N 40°30' W 031°32'817.4
2017-Sep-30 01:31N 40°31' W 031°42'1117.5
2017-Sep-30 00:51N 40°32' W 031°57'2917.6
2017-Sep-29 23:14N 40°36' W 032°35'1517.6
2017-Sep-29 22:23N 40°37' W 032°54'2317.8
2017-Sep-29 21:07N 40°40' W 033°24'717.8
2017-Sep-29 20:42N 40°41' W 033°33'817.9
2017-Sep-29 20:16N 40°41' W 033°43'  
Track history (hours):
 
Tides and Currents Weather Stations Pressure Air Temp Water Temp Dewpoint Dewpoint Depression Visibility Wind Speed Wind Dir Waves Ship Positions

Ever Loyal

Last reported at 2017-Oct-07 19:17 UTC. Time now 2017-Oct-17 13:11 UTC.
Position N 31°34' E 032°11'.
Warning: this ship's position is 9 days out of date.

Length 335 m; draft 10.7 m.

Type: Ship (hazmat cat D). MMSI: 416495000.

Date/timePositionNaut miles runAvg speedWind from/ knotsBaromVisibWave heightAir tempDewpointWater temp
2017-Oct-07 19:17N 31°34' E 032°11'415.0
2017-Oct-07 19:01N 31°37' E 032°07'1015.2
2017-Oct-07 18:20N 31°44' E 031°58'4715.0
2017-Oct-07 15:10N 31°59' E 031°06'1215.1
2017-Oct-07 14:22N 32°03' E 030°53'514.9
2017-Oct-07 14:00N 32°05' E 030°46'815.1
2017-Oct-07 13:31N 32°07' E 030°38'815.3
2017-Oct-07 13:00N 32°09' E 030°29'80817.2
2017-Oct-05 13:55N 36°20' E 014°60'717.7
2017-Oct-05 13:29N 36°22' E 014°51'917.6
2017-Oct-05 13:00N 36°25' E 014°41'917.4
2017-Oct-05 12:30N 36°28' E 014°31'917.4
2017-Oct-05 12:00N 36°31' E 014°20'917.5
2017-Oct-05 11:30N 36°33' E 014°10'917.4
2017-Oct-05 11:00N 36°36' E 013°60'917.5
2017-Oct-05 10:31N 36°39' E 013°49'917.3
2017-Oct-05 10:00N 36°41' E 013°39'816.7
2017-Oct-05 09:30N 36°44' E 013°29'816.5
2017-Oct-05 09:00N 36°46' E 013°19'816.5
2017-Oct-05 08:29N 36°49' E 013°09'816.6
2017-Oct-05 08:00N 36°52' E 012°60'  
2017-Oct-02 14:48N 36°27' W 009°59'916.6
2017-Oct-02 14:18N 36°28' W 010°09'1516.6
2017-Oct-02 13:22N 36°31' W 010°28'616.6
2017-Oct-02 13:01N 36°32' W 010°36'916.5
2017-Oct-02 12:29N 36°33' W 010°46'816.4
2017-Oct-02 12:00N 36°34' W 010°56'1517.0
2017-Oct-02 11:08N 36°36' W 011°14'419.4
2017-Oct-02 10:57N 36°37' W 011°18'919.5
2017-Oct-02 10:31N 36°40' W 011°29'1019.7
2017-Oct-02 10:00N 36°43' W 011°41'1019.9
2017-Oct-02 09:30N 36°46' W 011°52'1019.7
2017-Oct-02 09:01N 36°49' W 012°04'918.2
2017-Oct-02 08:30N 36°52' W 012°15'816.3
2017-Oct-02 08:00N 36°55' W 012°24'816.2
2017-Oct-02 07:30N 36°58' W 012°34'915.9
2017-Oct-02 06:58N 37°01' W 012°44'716.0
2017-Oct-02 06:30N 37°03' W 012°53'916.1
2017-Oct-02 05:59N 37°06' W 013°03'715.8
2017-Oct-02 05:30N 37°08' W 013°12'815.7
2017-Oct-02 05:00N 37°11' W 013°21'815.7
2017-Oct-02 04:30N 37°13' W 013°30'815.7
2017-Oct-02 04:00N 37°16' W 013°40'816.0
2017-Oct-02 03:30N 37°18' W 013°49'816.2
2017-Oct-02 03:01N 37°21' W 013°59'14816.4
2017-Oct-01 17:59N 38°05' W 016°57'1016.6
2017-Oct-01 17:23N 38°08' W 017°09'616.6
2017-Oct-01 17:00N 38°10' W 017°16'816.6
2017-Oct-01 16:30N 38°13' W 017°27'1016.6
2017-Oct-01 15:53N 38°15' W 017°39'616.6
2017-Oct-01 15:30N 38°17' W 017°47'1016.6
2017-Oct-01 14:56N 38°20' W 017°59'716.6
2017-Oct-01 14:30N 38°22' W 018°07'15316.8
2017-Oct-01 05:24N 39°01' W 021°17'48117.5
2017-Sep-30 01:57N 40°30' W 031°32'817.4
2017-Sep-30 01:31N 40°31' W 031°42'1117.5
2017-Sep-30 00:51N 40°32' W 031°57'2917.6
2017-Sep-29 23:14N 40°36' W 032°35'1517.6
2017-Sep-29 22:23N 40°37' W 032°54'2317.8
2017-Sep-29 21:07N 40°40' W 033°24'717.8
2017-Sep-29 20:42N 40°41' W 033°33'817.9
2017-Sep-29 20:16N 40°41' W 033°43'  

Dump ship's entire track history